createdAt,value
2024-02-29T00:00:10.913Z,28.20
2024-02-29T00:02:39.338Z,25.57
2024-02-29T00:05:10.360Z,27.70
2024-02-29T00:07:38.657Z,26.23
2024-02-29T00:10:08.296Z,25.40
2024-02-29T00:12:36.578Z,25.47
2024-02-29T00:15:05.353Z,25.80
2024-02-29T00:17:35.021Z,27.47
2024-02-29T00:20:03.982Z,28.43
2024-02-29T00:22:32.186Z,28.13
2024-02-29T00:25:00.466Z,26.07
2024-02-29T00:27:28.670Z,28.70
2024-02-29T00:29:56.838Z,27.60
2024-02-29T00:32:25.775Z,27.57
2024-02-29T00:34:55.485Z,22.80
2024-02-29T00:37:23.650Z,21.87
2024-02-29T00:39:51.866Z,22.00
2024-02-29T00:42:20.279Z,24.63
2024-02-29T00:44:48.575Z,25.13
2024-02-29T00:47:16.714Z,26.60
2024-02-29T00:49:44.999Z,21.07
2024-02-29T00:52:14.687Z,21.17
2024-02-29T00:54:42.949Z,28.07
2024-02-29T00:57:11.173Z,24.67
2024-02-29T00:59:39.341Z,25.77
2024-02-29T01:02:07.623Z,23.90
2024-02-29T01:04:35.844Z,24.40
2024-02-29T01:07:04.045Z,25.70
2024-02-29T01:09:33.662Z,25.60
2024-02-29T01:12:01.848Z,28.90
2024-02-29T01:14:30.053Z,26.93
2024-02-29T01:16:58.324Z,27.47
2024-02-29T01:19:26.822Z,23.80
2024-02-29T01:21:55.106Z,27.47
2024-02-29T01:24:24.688Z,28.43
2024-02-29T01:26:54.253Z,28.93
2024-02-29T01:29:23.581Z,30.50
2024-02-29T01:31:51.895Z,30.93
2024-02-29T01:34:20.794Z,32.57
2024-02-29T01:36:49.073Z,33.47
2024-02-29T01:39:17.304Z,32.30
2024-02-29T01:41:46.161Z,29.90
2024-02-29T01:44:17.785Z,29.53
2024-02-29T01:46:46.903Z,29.93
2024-02-29T01:49:15.494Z,30.87
2024-02-29T01:51:45.363Z,32.80
2024-02-29T01:54:13.622Z,35.70
2024-02-29T01:56:42.230Z,31.27
2024-02-29T01:59:10.783Z,33.17
2024-02-29T02:01:40.702Z,29.00
2024-02-29T02:04:08.889Z,31.77
2024-02-29T02:06:37.199Z,34.73
2024-02-29T02:09:05.932Z,35.93
2024-02-29T02:11:34.143Z,31.80
2024-02-29T02:14:02.264Z,30.87
2024-02-29T02:16:30.898Z,36.20
2024-02-29T02:19:00.461Z,31.20
2024-02-29T02:21:30.053Z,35.03
2024-02-29T02:23:58.224Z,38.50
2024-02-29T02:26:26.398Z,33.27
2024-02-29T02:28:54.679Z,38.90
2024-02-29T02:31:23.380Z,32.10
2024-02-29T02:33:51.907Z,30.47
2024-02-29T02:36:20.409Z,34.43
2024-02-29T02:38:50.102Z,34.67
2024-02-29T02:41:18.461Z,36.20
2024-02-29T02:43:49.742Z,36.30
2024-02-29T02:46:18.669Z,37.87
2024-02-29T02:48:46.884Z,37.13
2024-02-29T02:51:15.100Z,43.93
2024-02-29T02:53:43.285Z,36.03
2024-02-29T02:56:12.814Z,35.70
2024-02-29T02:58:41.002Z,39.07
2024-02-29T03:01:09.809Z,43.00
2024-02-29T03:03:38.259Z,39.50
2024-02-29T03:06:06.993Z,43.77
2024-02-29T03:08:35.231Z,39.97
2024-02-29T03:11:03.488Z,39.20
2024-02-29T03:13:33.053Z,41.50
2024-02-29T03:16:01.278Z,40.47
2024-02-29T03:18:29.883Z,42.60
2024-02-29T03:20:58.195Z,43.23
2024-02-29T03:23:26.373Z,41.10
2024-02-29T03:25:54.617Z,42.20
2024-02-29T03:28:22.817Z,38.90
2024-02-29T03:30:52.562Z,41.03
2024-02-29T03:33:20.818Z,41.17
2024-02-29T03:35:49.424Z,39.90
2024-02-29T03:38:18.000Z,47.13
2024-02-29T03:40:46.317Z,42.17
2024-02-29T03:43:14.487Z,39.53
2024-02-29T03:45:42.826Z,40.17
2024-02-29T03:48:12.738Z,43.50
2024-02-29T03:50:41.582Z,45.87
2024-02-29T03:53:09.765Z,44.80
2024-02-29T03:55:38.178Z,44.97
2024-02-29T03:58:06.660Z,45.53
2024-02-29T04:00:34.996Z,47.23
2024-02-29T04:03:03.283Z,50.43
2024-02-29T04:05:32.838Z,44.20
2024-02-29T04:08:05.008Z,47.37
2024-02-29T04:10:33.355Z,49.87
2024-02-29T04:13:01.556Z,50.77
2024-02-29T04:15:29.771Z,49.47
2024-02-29T04:17:58.202Z,49.20
2024-02-29T04:20:26.408Z,44.20
2024-02-29T04:22:56.197Z,48.93
2024-02-29T04:25:24.830Z,51.13
2024-02-29T04:27:53.432Z,46.40
2024-02-29T04:30:21.938Z,49.77
2024-02-29T04:32:50.319Z,48.60
2024-02-29T04:35:18.532Z,49.23
2024-02-29T04:37:46.758Z,53.20
2024-02-29T04:40:16.398Z,51.30
2024-02-29T04:42:44.644Z,47.67
2024-02-29T04:45:13.175Z,46.60
2024-02-29T04:47:41.657Z,52.20
2024-02-29T04:50:10.779Z,48.23
2024-02-29T04:52:38.990Z,53.70
2024-02-29T04:55:07.815Z,50.13
2024-02-29T04:57:37.728Z,54.80
2024-02-29T05:00:07.377Z,47.87
2024-02-29T05:02:35.694Z,53.70
2024-02-29T05:05:05.040Z,53.13
2024-02-29T05:07:33.292Z,53.40
2024-02-29T05:10:01.604Z,54.30
2024-02-29T05:12:29.951Z,49.57
2024-02-29T05:15:00.536Z,49.27
2024-02-29T05:17:29.563Z,53.73
2024-02-29T05:19:59.734Z,53.57
2024-02-29T05:22:28.388Z,51.27
2024-02-29T05:24:57.291Z,53.57
2024-02-29T05:27:30.547Z,50.80
2024-02-29T05:30:00.479Z,49.43
2024-02-29T05:32:29.090Z,54.47
2024-02-29T05:34:57.373Z,54.30
2024-02-29T05:37:25.706Z,54.13
2024-02-29T05:39:53.958Z,56.60
2024-02-29T05:42:23.413Z,53.57
2024-02-29T05:44:51.585Z,54.33
2024-02-29T05:47:21.139Z,50.37
2024-02-29T05:49:50.286Z,54.97
2024-02-29T05:52:19.353Z,60.97
2024-02-29T05:54:47.673Z,52.73
2024-02-29T05:57:15.947Z,51.50
2024-02-29T05:59:44.100Z,54.73
2024-02-29T06:02:12.367Z,51.60
2024-02-29T06:04:41.998Z,54.47
2024-02-29T06:07:10.298Z,53.30
2024-02-29T06:09:39.994Z,52.93
2024-02-29T06:12:08.436Z,55.03
2024-02-29T06:14:37.099Z,53.30
2024-02-29T06:17:05.367Z,53.90
2024-02-29T06:19:39.411Z,52.80
2024-02-29T06:22:09.537Z,50.33
2024-02-29T06:24:37.808Z,55.60
2024-02-29T06:27:06.550Z,52.60
2024-02-29T06:29:35.122Z,51.47
2024-02-29T06:32:03.555Z,57.23
2024-02-29T06:34:31.723Z,53.93
2024-02-29T06:37:00.173Z,54.07
2024-02-29T06:39:29.816Z,55.03
2024-02-29T06:41:58.066Z,51.67
2024-02-29T06:44:26.238Z,51.83
2024-02-29T06:46:54.451Z,52.10
2024-02-29T06:49:24.206Z,54.57
2024-02-29T06:51:53.261Z,51.37
2024-02-29T06:54:21.454Z,50.83
2024-02-29T06:56:51.131Z,51.33
2024-02-29T06:59:19.408Z,49.67
2024-02-29T07:01:47.834Z,46.13
2024-02-29T07:04:16.248Z,47.40
2024-02-29T07:06:44.497Z,43.63
2024-02-29T07:09:12.658Z,45.50
2024-02-29T07:11:41.849Z,46.47
2024-02-29T07:14:11.927Z,45.10
2024-02-29T07:16:40.193Z,40.00
2024-02-29T07:19:08.675Z,41.25
2024-02-29T07:21:37.577Z,40.95
2024-02-29T07:24:06.932Z,39.55
2024-02-29T07:26:35.136Z,39.05
2024-02-29T07:29:04.510Z,38.35
2024-02-29T07:31:34.735Z,40.17
2024-02-29T07:34:03.000Z,39.08
2024-02-29T07:36:31.395Z,45.45
2024-02-29T07:38:59.546Z,45.15
2024-02-29T07:41:28.011Z,37.75
2024-02-29T07:43:56.683Z,37.53
2024-02-29T07:46:24.850Z,37.00
2024-02-29T07:48:54.492Z,35.88
2024-02-29T07:51:22.690Z,36.78
2024-02-29T07:53:51.001Z,33.15
2024-02-29T07:56:19.227Z,34.25
2024-02-29T07:58:48.173Z,36.25
2024-02-29T08:01:16.552Z,32.60
2024-02-29T08:03:44.718Z,35.40
2024-02-29T08:06:14.404Z,35.55
2024-02-29T08:08:42.645Z,33.08
2024-02-29T08:11:10.961Z,31.88
2024-02-29T08:13:39.086Z,31.33
2024-02-29T08:16:07.998Z,34.03
2024-02-29T08:18:36.232Z,29.08
2024-02-29T08:21:05.391Z,32.30
2024-02-29T08:23:35.429Z,31.00
2024-02-29T08:26:09.253Z,30.90
2024-02-29T08:28:38.416Z,35.20
2024-02-29T08:31:07.230Z,29.15
2024-02-29T08:33:35.464Z,30.90
2024-02-29T08:36:04.584Z,29.85
2024-02-29T08:38:35.481Z,32.45
2024-02-29T08:41:05.281Z,31.35
2024-02-29T08:43:33.828Z,29.88
2024-02-29T08:46:02.219Z,30.17
2024-02-29T08:48:30.415Z,30.90
2024-02-29T08:50:58.668Z,30.60
2024-02-29T08:53:26.812Z,28.60
2024-02-29T08:55:56.605Z,31.05
2024-02-29T08:58:24.849Z,31.98
2024-02-29T09:00:53.545Z,29.33
2024-02-29T09:03:21.853Z,26.60
2024-02-29T09:05:50.491Z,29.25
2024-02-29T09:08:21.202Z,32.22
2024-02-29T09:10:50.890Z,31.65
2024-02-29T09:13:30.158Z,28.10
2024-02-29T09:16:03.111Z,27.58
2024-02-29T09:18:32.109Z,26.27
2024-02-29T09:21:00.381Z,30.27
2024-02-29T09:23:29.843Z,29.73
2024-02-29T09:25:58.140Z,30.00
2024-02-29T09:28:27.739Z,29.00
2024-02-29T09:30:56.058Z,25.52
2024-02-29T09:33:25.795Z,27.38
2024-02-29T09:35:58.624Z,27.08
2024-02-29T09:38:28.420Z,27.25
2024-02-29T09:41:03.314Z,28.83
2024-02-29T09:43:45.378Z,26.10
2024-02-29T09:46:13.696Z,31.95
2024-02-29T09:48:42.567Z,27.15
2024-02-29T09:51:16.667Z,27.63
2024-02-29T09:53:45.277Z,28.85
2024-02-29T09:56:15.422Z,28.13
2024-02-29T09:58:45.410Z,26.23
2024-02-29T10:01:13.812Z,29.33
2024-02-29T10:03:43.127Z,26.77
2024-02-29T10:06:12.488Z,27.92
2024-02-29T10:08:40.710Z,30.83
2024-02-29T10:11:09.692Z,28.42
2024-02-29T10:13:39.695Z,28.60
2024-02-29T10:16:10.559Z,30.80
2024-02-29T10:18:39.734Z,26.90
2024-02-29T10:21:12.443Z,28.90
2024-02-29T10:23:41.728Z,30.45
2024-02-29T10:26:10.146Z,28.83
2024-02-29T10:28:38.428Z,28.25
2024-02-29T10:31:06.677Z,33.75
2024-02-29T10:33:39.524Z,30.05
2024-02-29T10:36:13.518Z,29.63
2024-02-29T10:38:41.876Z,26.42
2024-02-29T10:41:12.671Z,27.52
2024-02-29T10:43:46.588Z,25.15
2024-02-29T10:46:17.307Z,29.42
2024-02-29T10:48:51.689Z,27.50
2024-02-29T10:51:28.349Z,26.95
2024-02-29T10:54:05.168Z,28.25
2024-02-29T10:56:35.017Z,26.33
2024-02-29T10:59:08.633Z,29.90
2024-02-29T11:01:38.681Z,28.42
2024-02-29T11:04:11.454Z,26.13
2024-02-29T11:06:43.961Z,29.90
2024-02-29T11:09:13.865Z,28.15
2024-02-29T11:11:44.001Z,30.17
2024-02-29T11:14:13.572Z,28.17
2024-02-29T11:16:44.981Z,27.55
2024-02-29T11:19:20.215Z,27.77
2024-02-29T11:21:48.553Z,24.20
2024-02-29T11:24:21.378Z,28.13
2024-02-29T11:26:56.727Z,25.50
2024-02-29T11:29:25.168Z,25.67
2024-02-29T11:31:55.867Z,27.15
2024-02-29T11:34:25.703Z,24.63
2024-02-29T11:36:55.362Z,27.90
2024-02-29T11:39:24.486Z,26.02
2024-02-29T11:42:01.517Z,23.17
2024-02-29T11:44:29.737Z,22.05
2024-02-29T11:46:58.692Z,22.95
2024-02-29T11:49:28.722Z,22.77
2024-02-29T11:51:57.728Z,20.75
2024-02-29T11:54:27.260Z,24.48
2024-02-29T11:56:56.313Z,23.52
2024-02-29T11:59:27.206Z,21.00
2024-02-29T12:01:57.995Z,21.80
2024-02-29T12:04:28.294Z,22.02
2024-02-29T12:06:57.751Z,21.13
2024-02-29T12:09:26.160Z,22.73
2024-02-29T12:11:54.746Z,23.88
2024-02-29T12:14:23.437Z,22.17
2024-02-29T12:16:52.165Z,22.92
2024-02-29T12:19:20.667Z,21.17
2024-02-29T12:21:51.691Z,19.52
2024-02-29T12:24:20.923Z,24.23
2024-02-29T12:26:50.289Z,22.23
2024-02-29T12:29:18.702Z,16.73
2024-02-29T12:31:46.962Z,16.77
2024-02-29T12:34:18.988Z,15.75
2024-02-29T12:36:49.584Z,19.63
2024-02-29T12:39:21.215Z,16.90
2024-02-29T12:41:49.446Z,16.98
2024-02-29T12:44:19.917Z,14.82
2024-02-29T12:46:53.712Z,15.82
2024-02-29T12:49:21.972Z,16.35
2024-02-29T12:51:52.629Z,16.20
2024-02-29T12:54:22.467Z,15.65
2024-02-29T12:56:50.900Z,17.20
2024-02-29T12:59:19.459Z,14.82
2024-02-29T13:01:54.256Z,16.20
2024-02-29T13:04:22.911Z,16.45
2024-02-29T13:06:52.745Z,18.95
2024-02-29T13:09:21.655Z,16.23
2024-02-29T13:11:49.965Z,17.73
2024-02-29T13:14:18.373Z,18.45
2024-02-29T13:16:46.619Z,16.15
2024-02-29T13:19:16.205Z,18.30
2024-02-29T13:21:44.875Z,21.35
2024-02-29T13:24:14.542Z,16.35
2024-02-29T13:26:43.425Z,30.88
2024-02-29T13:29:11.802Z,20.52
2024-02-29T13:31:40.125Z,23.13
2024-02-29T13:34:08.326Z,22.05
2024-02-29T13:36:36.781Z,22.15
2024-02-29T13:39:05.136Z,23.35
2024-02-29T13:41:34.723Z,22.70
2024-02-29T13:44:03.609Z,24.65
2024-02-29T13:46:31.931Z,21.70
2024-02-29T13:49:20.394Z,25.60
2024-02-29T13:51:48.458Z,21.85
2024-02-29T13:54:16.714Z,19.42
2024-02-29T13:56:46.696Z,20.70
2024-02-29T13:59:15.470Z,24.05
2024-02-29T14:01:44.016Z,20.80
2024-02-29T14:04:12.847Z,22.70
2024-02-29T14:06:41.224Z,18.50
2024-02-29T14:09:11.255Z,22.83
2024-02-29T14:11:40.024Z,20.88
2024-02-29T14:14:10.024Z,18.02
2024-02-29T14:16:38.266Z,21.73
2024-02-29T14:19:06.453Z,18.17
2024-02-29T14:21:35.264Z,19.92
2024-02-29T14:24:03.528Z,20.55
2024-02-29T14:26:31.764Z,19.75
2024-02-29T14:29:00.726Z,22.38
2024-02-29T14:31:30.690Z,20.33
2024-02-29T14:33:59.066Z,22.63
2024-02-29T14:36:27.239Z,19.90
2024-02-29T14:38:55.408Z,21.77
2024-02-29T14:41:25.675Z,24.45
2024-02-29T14:43:53.919Z,20.92
2024-02-29T14:46:22.769Z,20.73
2024-02-29T14:48:52.499Z,24.58
2024-02-29T14:51:22.604Z,20.80
2024-02-29T14:53:51.630Z,21.75
2024-02-29T14:56:19.977Z,21.13
2024-02-29T14:58:49.747Z,22.52
2024-02-29T15:01:18.102Z,19.33
2024-02-29T15:03:46.754Z,22.35
2024-02-29T15:06:16.717Z,23.38
2024-02-29T15:08:44.964Z,21.63
2024-02-29T15:11:13.227Z,21.90
2024-02-29T15:13:41.641Z,21.85
2024-02-29T15:16:12.651Z,21.90
2024-02-29T15:18:40.867Z,19.35
2024-02-29T15:21:09.593Z,20.92
2024-02-29T15:23:39.402Z,25.58
2024-02-29T15:26:11.633Z,22.67
2024-02-29T15:28:41.399Z,19.67
2024-02-29T15:31:09.992Z,23.45
2024-02-29T15:33:38.253Z,21.65
2024-02-29T15:36:07.103Z,23.08
2024-02-29T15:38:35.823Z,23.02
2024-02-29T15:41:05.737Z,20.80
2024-02-29T15:43:34.071Z,22.80
2024-02-29T15:46:02.455Z,22.63
2024-02-29T15:48:30.870Z,21.70
2024-02-29T15:50:59.837Z,22.65
2024-02-29T15:53:28.062Z,22.23
2024-02-29T15:55:57.017Z,26.38
2024-02-29T15:58:26.971Z,26.10
2024-02-29T16:00:55.176Z,25.83
2024-02-29T16:03:23.384Z,23.40
2024-02-29T16:05:52.945Z,27.65
2024-02-29T16:08:21.316Z,27.70
2024-02-29T16:10:49.589Z,21.55
2024-02-29T16:13:17.843Z,24.52
2024-02-29T16:15:47.890Z,28.00
2024-02-29T16:18:16.257Z,23.13
2024-02-29T16:20:44.592Z,22.27
2024-02-29T16:23:12.853Z,23.50
2024-02-29T16:25:42.678Z,25.55
2024-02-29T16:28:11.971Z,22.67
2024-02-29T16:30:40.259Z,21.23
2024-02-29T16:33:09.948Z,20.98
2024-02-29T16:35:38.082Z,20.48
2024-02-29T16:38:06.423Z,24.23
2024-02-29T16:40:37.154Z,19.58
2024-02-29T16:43:05.897Z,25.38
2024-02-29T16:45:34.400Z,23.58
2024-02-29T16:48:02.838Z,19.38
2024-02-29T16:50:32.428Z,19.75
2024-02-29T16:53:00.637Z,18.17
2024-02-29T16:55:29.045Z,21.83
2024-02-29T16:57:57.363Z,18.60
2024-02-29T17:00:25.708Z,17.67
2024-02-29T17:02:53.901Z,15.85
2024-02-29T17:05:22.174Z,18.48
2024-02-29T17:07:51.948Z,16.42
2024-02-29T17:10:20.312Z,16.70
2024-02-29T17:12:48.582Z,16.75
2024-02-29T17:15:17.116Z,14.77
2024-02-29T17:17:45.571Z,16.52
2024-02-29T17:20:13.943Z,18.60
2024-02-29T17:22:44.246Z,18.83
2024-02-29T17:25:13.920Z,17.95
2024-02-29T17:27:42.232Z,17.88
2024-02-29T17:30:12.961Z,19.95
2024-02-29T17:32:41.521Z,19.15
2024-02-29T17:35:10.520Z,19.48
2024-02-29T17:37:38.888Z,20.90
2024-02-29T17:40:08.235Z,21.70
2024-02-29T17:42:37.887Z,20.52
2024-02-29T17:45:06.838Z,20.33
2024-02-29T17:47:35.052Z,17.67
2024-02-29T17:50:03.312Z,17.20
2024-02-29T17:52:31.581Z,19.40
2024-02-29T17:54:59.824Z,20.70
2024-02-29T17:57:28.053Z,16.85
2024-02-29T17:59:57.972Z,20.80
2024-02-29T18:02:28.216Z,21.60
2024-02-29T18:04:59.896Z,19.90
2024-02-29T18:07:28.224Z,19.02
2024-02-29T18:09:59.576Z,18.15
2024-02-29T18:12:33.285Z,18.00
2024-02-29T18:15:03.364Z,18.63
2024-02-29T18:17:32.411Z,18.60
2024-02-29T18:20:01.081Z,18.73
2024-02-29T18:22:29.474Z,18.55
2024-02-29T18:24:57.885Z,20.13
2024-02-29T18:27:26.296Z,18.55
2024-02-29T18:29:54.590Z,16.70
2024-02-29T18:32:25.233Z,19.23
2024-02-29T18:34:53.473Z,17.60
2024-02-29T18:37:21.929Z,18.38
2024-02-29T18:39:50.202Z,17.75
2024-02-29T18:42:18.432Z,18.77
2024-02-29T18:44:46.705Z,21.95
2024-02-29T18:47:15.132Z,19.27
2024-02-29T18:49:44.809Z,19.60
2024-02-29T18:52:13.038Z,17.85
2024-02-29T18:54:45.555Z,18.90
2024-02-29T18:57:14.036Z,19.20
2024-02-29T18:59:42.938Z,18.52
2024-02-29T19:02:11.270Z,17.00
2024-02-29T19:04:39.881Z,16.40
2024-02-29T19:07:09.910Z,19.17
2024-02-29T19:09:38.320Z,18.38
2024-02-29T19:12:07.374Z,20.60
2024-02-29T19:14:35.914Z,18.88
2024-02-29T19:17:04.851Z,16.77
2024-02-29T19:19:33.055Z,21.50
2024-02-29T19:22:02.527Z,18.35
2024-02-29T19:24:32.324Z,20.25
2024-02-29T19:27:00.573Z,19.98
2024-02-29T19:29:29.858Z,19.23
2024-02-29T19:31:58.234Z,18.23
2024-02-29T19:34:26.862Z,20.58
2024-02-29T19:36:55.939Z,21.92
2024-02-29T19:39:24.409Z,18.58
2024-02-29T19:41:54.168Z,20.65
2024-02-29T19:44:22.500Z,21.65
2024-02-29T19:46:51.745Z,19.30
2024-02-29T19:49:20.416Z,19.60
2024-02-29T19:51:48.977Z,18.77
2024-02-29T19:54:17.558Z,22.15
2024-02-29T19:56:45.755Z,21.27
2024-02-29T19:59:15.539Z,21.08
2024-02-29T20:01:43.937Z,20.77
2024-02-29T20:04:12.396Z,23.10
2024-02-29T20:06:44.386Z,28.77
2024-02-29T20:09:12.655Z,24.52
2024-02-29T20:11:41.339Z,21.60
2024-02-29T20:14:09.702Z,24.20
2024-02-29T20:16:39.412Z,24.00
2024-02-29T20:19:08.742Z,24.65
2024-02-29T20:21:37.219Z,22.80
2024-02-29T20:24:06.559Z,23.75
2024-02-29T20:26:35.089Z,22.40
2024-02-29T20:29:03.704Z,26.42
2024-02-29T20:31:32.993Z,27.55
2024-02-29T20:34:02.641Z,30.45
2024-02-29T20:36:30.945Z,27.98
2024-02-29T20:38:59.208Z,26.60
2024-02-29T20:41:27.516Z,26.83
2024-02-29T20:43:55.703Z,26.48
2024-02-29T20:46:24.015Z,27.55
2024-02-29T20:48:52.402Z,26.98
2024-02-29T20:51:22.004Z,30.08
2024-02-29T20:53:50.466Z,29.85
2024-02-29T20:56:18.685Z,26.20
2024-02-29T20:58:47.031Z,28.42
2024-02-29T21:01:15.284Z,26.15
2024-02-29T21:03:43.749Z,28.17
2024-02-29T21:06:12.138Z,30.05
2024-02-29T21:08:42.001Z,30.83
2024-02-29T21:11:10.457Z,30.23
2024-02-29T21:13:41.203Z,27.85
2024-02-29T21:16:09.717Z,26.98
2024-02-29T21:18:38.370Z,30.45
2024-02-29T21:21:07.185Z,29.00
2024-02-29T21:23:35.433Z,31.77
2024-02-29T21:26:06.497Z,31.75
2024-02-29T21:28:34.913Z,30.17
2024-02-29T21:31:04.007Z,31.17
2024-02-29T21:33:34.240Z,29.73
2024-02-29T21:36:02.637Z,30.92
2024-02-29T21:38:30.857Z,27.35
2024-02-29T21:40:59.235Z,34.00
2024-02-29T21:43:29.306Z,28.92
2024-02-29T21:45:57.782Z,33.70
2024-02-29T21:48:26.141Z,28.58
2024-02-29T21:50:54.412Z,35.05
2024-02-29T21:53:23.569Z,31.38
2024-02-29T21:55:52.100Z,27.48
2024-02-29T21:58:20.435Z,30.45
2024-02-29T22:00:50.595Z,31.63
2024-02-29T22:03:19.676Z,28.95
2024-02-29T22:05:50.051Z,33.70
2024-02-29T22:08:18.284Z,32.38
2024-02-29T22:10:47.809Z,29.70
2024-02-29T22:13:16.149Z,29.80
2024-02-29T22:15:44.737Z,33.35
2024-02-29T22:18:14.499Z,32.85
2024-02-29T22:20:46.069Z,28.77
2024-02-29T22:23:14.617Z,30.83
2024-02-29T22:25:43.803Z,32.10
2024-02-29T22:28:12.155Z,30.70
2024-02-29T22:30:40.470Z,30.73
2024-02-29T22:33:08.720Z,28.50
2024-02-29T22:35:38.318Z,30.83
2024-02-29T22:38:06.566Z,31.10
2024-02-29T22:40:34.903Z,30.42
2024-02-29T22:43:03.154Z,34.25
2024-02-29T22:45:31.685Z,33.00
2024-02-29T22:47:59.941Z,30.08
2024-02-29T22:50:28.319Z,33.60
2024-02-29T22:52:58.197Z,32.88
2024-02-29T22:55:26.532Z,35.05
2024-02-29T22:57:55.247Z,33.70
2024-02-29T23:00:31.423Z,35.50
2024-02-29T23:02:59.928Z,32.08
2024-02-29T23:05:28.385Z,32.28
2024-02-29T23:07:58.383Z,32.50
2024-02-29T23:10:27.255Z,34.08
2024-02-29T23:12:56.012Z,34.88
2024-02-29T23:15:24.350Z,34.35
2024-02-29T23:17:55.941Z,34.95
2024-02-29T23:20:24.409Z,33.75
2024-02-29T23:22:54.057Z,34.03
2024-02-29T23:25:25.345Z,32.03
2024-02-29T23:27:54.234Z,32.45
2024-02-29T23:30:22.605Z,34.20
2024-02-29T23:32:50.822Z,37.17
2024-02-29T23:35:19.074Z,38.53
2024-02-29T23:37:47.455Z,35.38
2024-02-29T23:40:16.643Z,40.47
2024-02-29T23:42:46.444Z,32.28
2024-02-29T23:45:14.734Z,33.78
2024-02-29T23:47:43.009Z,30.85
2024-02-29T23:50:11.763Z,34.97
2024-02-29T23:52:40.365Z,31.80
2024-02-29T23:55:09.160Z,34.47
2024-02-29T23:57:37.359Z,34.95
